sensor_id;sensor_type;location;lat;lon;timestamp;temperature;humidity
62464;SHT31;48512;48.552;9.380;2023-12-22T00:00:11;7.33;94.31
62464;SHT31;48512;48.552;9.380;2023-12-22T00:02:37;7.33;94.59
62464;SHT31;48512;48.552;9.380;2023-12-22T00:05:04;7.31;94.57
62464;SHT31;48512;48.552;9.380;2023-12-22T00:07:31;7.33;94.65
62464;SHT31;48512;48.552;9.380;2023-12-22T00:09:57;7.30;94.86
62464;SHT31;48512;48.552;9.380;2023-12-22T00:12:25;7.29;94.58
62464;SHT31;48512;48.552;9.380;2023-12-22T00:14:51;7.23;94.21
62464;SHT31;48512;48.552;9.380;2023-12-22T00:17:17;7.23;93.38
62464;SHT31;48512;48.552;9.380;2023-12-22T00:19:43;7.19;93.37
62464;SHT31;48512;48.552;9.380;2023-12-22T00:22:10;7.16;93.70
62464;SHT31;48512;48.552;9.380;2023-12-22T00:24:36;7.16;93.72
62464;SHT31;48512;48.552;9.380;2023-12-22T00:27:02;7.12;92.59
62464;SHT31;48512;48.552;9.380;2023-12-22T00:29:29;7.09;92.06
62464;SHT31;48512;48.552;9.380;2023-12-22T00:31:56;7.10;91.51
62464;SHT31;48512;48.552;9.380;2023-12-22T00:34:23;7.09;91.32
62464;SHT31;48512;48.552;9.380;2023-12-22T00:36:49;7.10;90.38
62464;SHT31;48512;48.552;9.380;2023-12-22T00:39:16;7.12;89.99
62464;SHT31;48512;48.552;9.380;2023-12-22T00:41:42;7.13;90.28
62464;SHT31;48512;48.552;9.380;2023-12-22T00:44:11;7.15;88.89
62464;SHT31;48512;48.552;9.380;2023-12-22T00:46:37;7.16;88.82
62464;SHT31;48512;48.552;9.380;2023-12-22T00:49:04;7.16;88.42
62464;SHT31;48512;48.552;9.380;2023-12-22T00:51:39;7.16;88.78
62464;SHT31;48512;48.552;9.380;2023-12-22T00:54:06;7.13;88.46
62464;SHT31;48512;48.552;9.380;2023-12-22T00:56:32;7.16;87.57
62464;SHT31;48512;48.552;9.380;2023-12-22T00:58:58;7.13;87.77
62464;SHT31;48512;48.552;9.380;2023-12-22T01:01:24;7.16;87.54
62464;SHT31;48512;48.552;9.380;2023-12-22T01:03:51;7.13;86.79
62464;SHT31;48512;48.552;9.380;2023-12-22T01:06:18;7.12;87.11
62464;SHT31;48512;48.552;9.380;2023-12-22T01:08:44;7.10;87.71
62464;SHT31;48512;48.552;9.380;2023-12-22T01:11:10;7.10;87.37
62464;SHT31;48512;48.552;9.380;2023-12-22T01:13:36;7.08;87.36
62464;SHT31;48512;48.552;9.380;2023-12-22T01:16:03;7.08;87.53
62464;SHT31;48512;48.552;9.380;2023-12-22T01:18:29;7.06;87.42
62464;SHT31;48512;48.552;9.380;2023-12-22T01:20:58;7.06;86.36
62464;SHT31;48512;48.552;9.380;2023-12-22T01:23:24;7.08;85.92
62464;SHT31;48512;48.552;9.380;2023-12-22T01:25:51;7.06;86.06
62464;SHT31;48512;48.552;9.380;2023-12-22T01:28:18;7.10;85.83
62464;SHT31;48512;48.552;9.380;2023-12-22T01:30:45;7.13;85.57
62464;SHT31;48512;48.552;9.380;2023-12-22T01:33:11;7.10;85.52
62464;SHT31;48512;48.552;9.380;2023-12-22T01:35:37;7.10;85.98
62464;SHT31;48512;48.552;9.380;2023-12-22T01:38:03;7.12;85.45
62464;SHT31;48512;48.552;9.380;2023-12-22T01:40:29;7.12;85.45
62464;SHT31;48512;48.552;9.380;2023-12-22T01:42:55;7.13;85.60
62464;SHT31;48512;48.552;9.380;2023-12-22T01:45:22;7.10;85.80
62464;SHT31;48512;48.552;9.380;2023-12-22T01:47:48;7.09;85.45
62464;SHT31;48512;48.552;9.380;2023-12-22T01:50:15;7.12;85.35
62464;SHT31;48512;48.552;9.380;2023-12-22T01:52:43;7.10;85.49
62464;SHT31;48512;48.552;9.380;2023-12-22T01:55:11;7.05;85.48
62464;SHT31;48512;48.552;9.380;2023-12-22T01:57:39;6.99;85.49
62464;SHT31;48512;48.552;9.380;2023-12-22T02:00:08;6.98;85.84
62464;SHT31;48512;48.552;9.380;2023-12-22T02:02:38;6.91;85.71
62464;SHT31;48512;48.552;9.380;2023-12-22T02:05:06;6.88;85.77
62464;SHT31;48512;48.552;9.380;2023-12-22T02:07:35;6.82;85.33
62464;SHT31;48512;48.552;9.380;2023-12-22T02:10:01;6.87;85.62
62464;SHT31;48512;48.552;9.380;2023-12-22T02:12:27;6.81;85.77
62464;SHT31;48512;48.552;9.380;2023-12-22T02:14:53;6.81;85.59
62464;SHT31;48512;48.552;9.380;2023-12-22T02:20:16;6.82;85.34
62464;SHT31;48512;48.552;9.380;2023-12-22T02:22:44;6.78;85.67
62464;SHT31;48512;48.552;9.380;2023-12-22T02:25:10;6.71;85.10
62464;SHT31;48512;48.552;9.380;2023-12-22T02:30:19;6.70;85.40
62464;SHT31;48512;48.552;9.380;2023-12-22T02:32:51;6.68;85.19
62464;SHT31;48512;48.552;9.380;2023-12-22T02:35:21;6.68;85.01
62464;SHT31;48512;48.552;9.380;2023-12-22T02:37:50;6.70;85.06
62464;SHT31;48512;48.552;9.380;2023-12-22T02:40:17;6.67;85.32
62464;SHT31;48512;48.552;9.380;2023-12-22T02:42:44;6.71;84.77
62464;SHT31;48512;48.552;9.380;2023-12-22T02:45:16;6.67;84.60
62464;SHT31;48512;48.552;9.380;2023-12-22T02:47:43;6.67;84.15
62464;SHT31;48512;48.552;9.380;2023-12-22T02:50:12;6.68;84.09
62464;SHT31;48512;48.552;9.380;2023-12-22T02:52:39;6.67;83.97
62464;SHT31;48512;48.552;9.380;2023-12-22T02:55:05;6.70;83.96
62464;SHT31;48512;48.552;9.380;2023-12-22T02:57:32;6.71;83.77
62464;SHT31;48512;48.552;9.380;2023-12-22T02:59:58;6.71;83.92
62464;SHT31;48512;48.552;9.380;2023-12-22T03:02:25;6.72;83.26
62464;SHT31;48512;48.552;9.380;2023-12-22T03:04:51;6.78;82.99
62464;SHT31;48512;48.552;9.380;2023-12-22T03:07:17;6.77;83.30
62464;SHT31;48512;48.552;9.380;2023-12-22T03:09:44;6.81;82.93
62464;SHT31;48512;48.552;9.380;2023-12-22T03:12:10;6.79;83.56
62464;SHT31;48512;48.552;9.380;2023-12-22T03:14:37;6.81;83.00
62464;SHT31;48512;48.552;9.380;2023-12-22T03:17:05;6.79;82.87
62464;SHT31;48512;48.552;9.380;2023-12-22T03:19:33;6.79;83.00
62464;SHT31;48512;48.552;9.380;2023-12-22T03:21:59;6.84;82.80
62464;SHT31;48512;48.552;9.380;2023-12-22T03:24:26;6.84;82.47
62464;SHT31;48512;48.552;9.380;2023-12-22T03:26:54;6.84;83.05
62464;SHT31;48512;48.552;9.380;2023-12-22T03:29:21;6.85;82.74
62464;SHT31;48512;48.552;9.380;2023-12-22T03:31:48;6.84;82.78
62464;SHT31;48512;48.552;9.380;2023-12-22T03:34:14;6.81;83.18
62464;SHT31;48512;48.552;9.380;2023-12-22T03:36:40;6.77;82.91
62464;SHT31;48512;48.552;9.380;2023-12-22T03:39:12;6.77;83.19
62464;SHT31;48512;48.552;9.380;2023-12-22T03:41:38;6.75;83.36
62464;SHT31;48512;48.552;9.380;2023-12-22T03:44:04;6.72;83.39
62464;SHT31;48512;48.552;9.380;2023-12-22T03:46:30;6.74;82.76
62464;SHT31;48512;48.552;9.380;2023-12-22T03:48:56;6.72;82.79
62464;SHT31;48512;48.552;9.380;2023-12-22T03:51:22;6.71;82.53
62464;SHT31;48512;48.552;9.380;2023-12-22T03:53:50;6.75;82.94
62464;SHT31;48512;48.552;9.380;2023-12-22T03:56:16;6.74;82.47
62464;SHT31;48512;48.552;9.380;2023-12-22T03:58:42;6.78;82.55
62464;SHT31;48512;48.552;9.380;2023-12-22T04:01:09;6.75;82.48
62464;SHT31;48512;48.552;9.380;2023-12-22T04:03:39;6.77;82.50
62464;SHT31;48512;48.552;9.380;2023-12-22T04:06:05;6.81;82.56
62464;SHT31;48512;48.552;9.380;2023-12-22T04:08:34;6.75;82.66
62464;SHT31;48512;48.552;9.380;2023-12-22T04:11:03;6.75;82.92
62464;SHT31;48512;48.552;9.380;2023-12-22T04:16:41;6.74;83.63
62464;SHT31;48512;48.552;9.380;2023-12-22T04:19:07;6.77;83.27
62464;SHT31;48512;48.552;9.380;2023-12-22T04:21:45;6.74;83.06
62464;SHT31;48512;48.552;9.380;2023-12-22T04:24:11;6.74;83.77
62464;SHT31;48512;48.552;9.380;2023-12-22T04:26:37;6.74;83.60
62464;SHT31;48512;48.552;9.380;2023-12-22T04:29:33;6.72;83.55
62464;SHT31;48512;48.552;9.380;2023-12-22T04:31:59;6.71;83.37
62464;SHT31;48512;48.552;9.380;2023-12-22T04:34:25;6.72;83.44
62464;SHT31;48512;48.552;9.380;2023-12-22T04:37:18;6.67;84.58
62464;SHT31;48512;48.552;9.380;2023-12-22T04:39:48;6.70;84.11
62464;SHT31;48512;48.552;9.380;2023-12-22T04:42:14;6.68;84.35
62464;SHT31;48512;48.552;9.380;2023-12-22T04:44:41;6.67;85.05
62464;SHT31;48512;48.552;9.380;2023-12-22T04:47:07;6.65;85.91
62464;SHT31;48512;48.552;9.380;2023-12-22T04:49:41;6.61;85.75
62464;SHT31;48512;48.552;9.380;2023-12-22T04:52:08;6.64;85.68
62464;SHT31;48512;48.552;9.380;2023-12-22T04:54:34;6.61;85.31
62464;SHT31;48512;48.552;9.380;2023-12-22T04:57:02;6.61;85.80
62464;SHT31;48512;48.552;9.380;2023-12-22T04:59:29;6.63;86.12
62464;SHT31;48512;48.552;9.380;2023-12-22T05:01:55;6.63;86.27
62464;SHT31;48512;48.552;9.380;2023-12-22T05:04:21;6.57;86.18
62464;SHT31;48512;48.552;9.380;2023-12-22T05:06:49;6.57;86.43
62464;SHT31;48512;48.552;9.380;2023-12-22T05:09:17;6.58;86.58
62464;SHT31;48512;48.552;9.380;2023-12-22T05:11:43;6.55;86.70
62464;SHT31;48512;48.552;9.380;2023-12-22T05:14:09;6.57;86.47
62464;SHT31;48512;48.552;9.380;2023-12-22T05:16:37;6.57;86.88
62464;SHT31;48512;48.552;9.380;2023-12-22T05:19:03;6.57;87.16
62464;SHT31;48512;48.552;9.380;2023-12-22T05:21:29;6.53;86.95
62464;SHT31;48512;48.552;9.380;2023-12-22T05:23:56;6.53;86.92
62464;SHT31;48512;48.552;9.380;2023-12-22T05:26:23;6.48;86.68
62464;SHT31;48512;48.552;9.380;2023-12-22T05:28:51;6.53;86.90
62464;SHT31;48512;48.552;9.380;2023-12-22T05:31:17;6.55;85.59
62464;SHT31;48512;48.552;9.380;2023-12-22T05:33:47;6.60;85.71
62464;SHT31;48512;48.552;9.380;2023-12-22T05:36:13;6.58;85.31
62464;SHT31;48512;48.552;9.380;2023-12-22T05:38:39;6.63;85.18
62464;SHT31;48512;48.552;9.380;2023-12-22T05:41:06;6.68;83.77
62464;SHT31;48512;48.552;9.380;2023-12-22T05:43:32;6.72;84.50
62464;SHT31;48512;48.552;9.380;2023-12-22T05:46:02;6.67;84.87
62464;SHT31;48512;48.552;9.380;2023-12-22T05:48:28;6.70;84.57
62464;SHT31;48512;48.552;9.380;2023-12-22T05:50:57;6.64;85.49
62464;SHT31;48512;48.552;9.380;2023-12-22T05:53:23;6.63;85.69
62464;SHT31;48512;48.552;9.380;2023-12-22T05:55:49;6.60;85.98
62464;SHT31;48512;48.552;9.380;2023-12-22T05:58:16;6.58;85.74
62464;SHT31;48512;48.552;9.380;2023-12-22T06:00:42;6.57;85.71
62464;SHT31;48512;48.552;9.380;2023-12-22T06:03:08;6.55;85.92
62464;SHT31;48512;48.552;9.380;2023-12-22T06:05:34;6.57;86.06
62464;SHT31;48512;48.552;9.380;2023-12-22T06:08:01;6.57;85.84
62464;SHT31;48512;48.552;9.380;2023-12-22T06:10:27;6.64;85.39
62464;SHT31;48512;48.552;9.380;2023-12-22T06:12:53;6.67;84.98
62464;SHT31;48512;48.552;9.380;2023-12-22T06:15:19;6.70;85.12
62464;SHT31;48512;48.552;9.380;2023-12-22T06:17:45;6.64;86.45
62464;SHT31;48512;48.552;9.380;2023-12-22T06:20:11;6.63;86.41
62464;SHT31;48512;48.552;9.380;2023-12-22T06:22:38;6.61;86.72
62464;SHT31;48512;48.552;9.380;2023-12-22T06:25:04;6.54;87.58
62464;SHT31;48512;48.552;9.380;2023-12-22T06:27:34;6.53;88.01
62464;SHT31;48512;48.552;9.380;2023-12-22T06:30:01;6.48;88.39
62464;SHT31;48512;48.552;9.380;2023-12-22T06:32:27;6.47;88.78
62464;SHT31;48512;48.552;9.380;2023-12-22T06:34:54;6.44;88.75
62464;SHT31;48512;48.552;9.380;2023-12-22T06:37:21;6.41;88.61
62464;SHT31;48512;48.552;9.380;2023-12-22T06:39:47;6.40;88.20
62464;SHT31;48512;48.552;9.380;2023-12-22T06:42:13;6.44;87.85
62464;SHT31;48512;48.552;9.380;2023-12-22T06:44:43;6.45;88.20
62464;SHT31;48512;48.552;9.380;2023-12-22T06:47:12;6.45;87.82
62464;SHT31;48512;48.552;9.380;2023-12-22T06:49:39;6.45;87.53
62464;SHT31;48512;48.552;9.380;2023-12-22T06:52:05;6.43;88.17
62464;SHT31;48512;48.552;9.380;2023-12-22T06:54:31;6.53;88.11
62464;SHT31;48512;48.552;9.380;2023-12-22T06:56:59;6.47;87.48
62464;SHT31;48512;48.552;9.380;2023-12-22T06:59:26;6.41;88.57
62464;SHT31;48512;48.552;9.380;2023-12-22T07:01:52;6.37;88.74
62464;SHT31;48512;48.552;9.380;2023-12-22T07:04:18;6.34;89.04
62464;SHT31;48512;48.552;9.380;2023-12-22T07:06:44;6.29;89.35
62464;SHT31;48512;48.552;9.380;2023-12-22T07:11:43;6.19;90.04
62464;SHT31;48512;48.552;9.380;2023-12-22T07:14:09;6.20;90.40
62464;SHT31;48512;48.552;9.380;2023-12-22T07:16:36;6.22;90.05
62464;SHT31;48512;48.552;9.380;2023-12-22T07:19:09;6.23;88.91
62464;SHT31;48512;48.552;9.380;2023-12-22T07:21:40;6.23;88.88
62464;SHT31;48512;48.552;9.380;2023-12-22T07:24:07;6.32;87.92
62464;SHT31;48512;48.552;9.380;2023-12-22T07:26:34;6.29;86.94
62464;SHT31;48512;48.552;9.380;2023-12-22T07:29:00;6.34;86.74
62464;SHT31;48512;48.552;9.380;2023-12-22T07:31:27;6.43;85.31
62464;SHT31;48512;48.552;9.380;2023-12-22T07:33:54;6.44;85.12
62464;SHT31;48512;48.552;9.380;2023-12-22T07:36:20;6.48;85.16
62464;SHT31;48512;48.552;9.380;2023-12-22T07:38:47;6.51;84.84
62464;SHT31;48512;48.552;9.380;2023-12-22T07:41:13;6.50;85.10
62464;SHT31;48512;48.552;9.380;2023-12-22T07:43:39;6.51;84.96
62464;SHT31;48512;48.552;9.380;2023-12-22T07:46:07;6.54;84.06
62464;SHT31;48512;48.552;9.380;2023-12-22T07:48:35;6.55;83.91
62464;SHT31;48512;48.552;9.380;2023-12-22T07:51:02;6.58;84.63
62464;SHT31;48512;48.552;9.380;2023-12-22T07:53:28;6.57;84.92
62464;SHT31;48512;48.552;9.380;2023-12-22T07:55:55;6.58;85.36
62464;SHT31;48512;48.552;9.380;2023-12-22T07:58:23;8.23;89.77
62464;SHT31;48512;48.552;9.380;2023-12-22T08:00:49;8.25;80.53
62464;SHT31;48512;48.552;9.380;2023-12-22T08:03:16;7.66;81.34
62464;SHT31;48512;48.552;9.380;2023-12-22T08:05:42;7.29;82.38
62464;SHT31;48512;48.552;9.380;2023-12-22T08:08:08;7.09;83.37
62464;SHT31;48512;48.552;9.380;2023-12-22T08:10:35;6.93;83.90
62464;SHT31;48512;48.552;9.380;2023-12-22T08:13:01;6.84;85.07
62464;SHT31;48512;48.552;9.380;2023-12-22T08:15:27;6.72;85.39
62464;SHT31;48512;48.552;9.380;2023-12-22T08:17:53;6.74;85.24
62464;SHT31;48512;48.552;9.380;2023-12-22T08:20:20;6.71;85.23
62464;SHT31;48512;48.552;9.380;2023-12-22T08:22:48;6.74;85.10
62464;SHT31;48512;48.552;9.380;2023-12-22T08:25:15;6.75;84.35
62464;SHT31;48512;48.552;9.380;2023-12-22T08:27:42;6.74;85.69
62464;SHT31;48512;48.552;9.380;2023-12-22T08:30:09;6.74;85.28
62464;SHT31;48512;48.552;9.380;2023-12-22T08:32:35;6.75;85.64
62464;SHT31;48512;48.552;9.380;2023-12-22T08:35:02;6.75;86.00
62464;SHT31;48512;48.552;9.380;2023-12-22T08:37:29;6.71;86.32
62464;SHT31;48512;48.552;9.380;2023-12-22T08:39:56;6.77;85.57
62464;SHT31;48512;48.552;9.380;2023-12-22T08:42:22;6.79;85.73
62464;SHT31;48512;48.552;9.380;2023-12-22T08:44:49;6.78;85.72
62464;SHT31;48512;48.552;9.380;2023-12-22T08:47:15;6.81;85.63
62464;SHT31;48512;48.552;9.380;2023-12-22T08:49:42;6.79;85.57
62464;SHT31;48512;48.552;9.380;2023-12-22T08:52:08;6.78;86.50
62464;SHT31;48512;48.552;9.380;2023-12-22T08:54:34;6.81;86.49
62464;SHT31;48512;48.552;9.380;2023-12-22T08:57:04;6.78;86.84
62464;SHT31;48512;48.552;9.380;2023-12-22T08:59:30;6.85;86.87
62464;SHT31;48512;48.552;9.380;2023-12-22T09:01:56;6.79;87.07
62464;SHT31;48512;48.552;9.380;2023-12-22T09:04:22;6.77;86.61
62464;SHT31;48512;48.552;9.380;2023-12-22T09:06:51;6.81;86.70
62464;SHT31;48512;48.552;9.380;2023-12-22T09:09:18;6.82;86.26
62464;SHT31;48512;48.552;9.380;2023-12-22T09:11:44;6.91;86.01
62464;SHT31;48512;48.552;9.380;2023-12-22T09:14:10;6.92;86.17
62464;SHT31;48512;48.552;9.380;2023-12-22T09:16:37;6.95;85.58
62464;SHT31;48512;48.552;9.380;2023-12-22T09:19:04;6.92;85.91
62464;SHT31;48512;48.552;9.380;2023-12-22T09:21:30;6.96;86.31
62464;SHT31;48512;48.552;9.380;2023-12-22T09:23:56;6.95;86.26
62464;SHT31;48512;48.552;9.380;2023-12-22T09:26:22;6.92;86.09
62464;SHT31;48512;48.552;9.380;2023-12-22T09:28:49;6.89;86.59
62464;SHT31;48512;48.552;9.380;2023-12-22T09:31:15;6.85;87.65
62464;SHT31;48512;48.552;9.380;2023-12-22T09:33:42;6.87;87.75
62464;SHT31;48512;48.552;9.380;2023-12-22T09:36:08;6.82;88.38
62464;SHT31;48512;48.552;9.380;2023-12-22T09:38:35;6.81;88.36
62464;SHT31;48512;48.552;9.380;2023-12-22T09:41:02;6.79;88.63
62464;SHT31;48512;48.552;9.380;2023-12-22T09:43:29;6.77;88.42
62464;SHT31;48512;48.552;9.380;2023-12-22T09:45:56;6.78;88.66
62464;SHT31;48512;48.552;9.380;2023-12-22T09:48:23;6.75;88.66
62464;SHT31;48512;48.552;9.380;2023-12-22T09:50:54;6.78;88.44
62464;SHT31;48512;48.552;9.380;2023-12-22T09:53:22;6.82;88.51
62464;SHT31;48512;48.552;9.380;2023-12-22T09:55:50;6.88;87.83
62464;SHT31;48512;48.552;9.380;2023-12-22T09:58:16;6.88;88.54
62464;SHT31;48512;48.552;9.380;2023-12-22T10:00:43;6.87;87.55
62464;SHT31;48512;48.552;9.380;2023-12-22T10:03:11;6.89;87.74
62464;SHT31;48512;48.552;9.380;2023-12-22T10:05:41;6.93;87.22
62464;SHT31;48512;48.552;9.380;2023-12-22T10:08:11;6.92;87.11
62464;SHT31;48512;48.552;9.380;2023-12-22T10:10:38;6.99;87.66
62464;SHT31;48512;48.552;9.380;2023-12-22T10:13:06;6.95;87.48
62464;SHT31;48512;48.552;9.380;2023-12-22T10:15:43;6.99;87.37
62464;SHT31;48512;48.552;9.380;2023-12-22T10:18:12;6.99;87.40
62464;SHT31;48512;48.552;9.380;2023-12-22T10:20:40;6.99;87.94
62464;SHT31;48512;48.552;9.380;2023-12-22T10:23:06;6.98;87.33
62464;SHT31;48512;48.552;9.380;2023-12-22T10:25:33;6.98;87.35
62464;SHT31;48512;48.552;9.380;2023-12-22T10:27:59;6.99;87.20
62464;SHT31;48512;48.552;9.380;2023-12-22T10:30:25;7.00;87.16
62464;SHT31;48512;48.552;9.380;2023-12-22T10:32:52;7.05;87.14
62464;SHT31;48512;48.552;9.380;2023-12-22T10:35:22;7.10;86.68
62464;SHT31;48512;48.552;9.380;2023-12-22T10:37:49;7.09;86.86
62464;SHT31;48512;48.552;9.380;2023-12-22T10:40:19;7.12;86.68
62464;SHT31;48512;48.552;9.380;2023-12-22T10:42:48;7.15;86.47
62464;SHT31;48512;48.552;9.380;2023-12-22T10:45:18;7.12;86.32
62464;SHT31;48512;48.552;9.380;2023-12-22T10:47:48;7.10;86.95
62464;SHT31;48512;48.552;9.380;2023-12-22T10:50:19;7.09;87.06
62464;SHT31;48512;48.552;9.380;2023-12-22T10:52:52;7.00;86.81
62464;SHT31;48512;48.552;9.380;2023-12-22T10:55:19;7.02;87.16
62464;SHT31;48512;48.552;9.380;2023-12-22T10:57:47;7.02;87.37
62464;SHT31;48512;48.552;9.380;2023-12-22T11:00:15;7.02;88.03
62464;SHT31;48512;48.552;9.380;2023-12-22T11:02:49;6.96;88.15
62464;SHT31;48512;48.552;9.380;2023-12-22T11:05:24;6.98;89.03
62464;SHT31;48512;48.552;9.380;2023-12-22T11:07:55;6.98;88.65
62464;SHT31;48512;48.552;9.380;2023-12-22T11:10:28;6.91;89.04
62464;SHT31;48512;48.552;9.380;2023-12-22T11:12:57;6.91;89.31
62464;SHT31;48512;48.552;9.380;2023-12-22T11:15:27;6.89;88.97
62464;SHT31;48512;48.552;9.380;2023-12-22T11:17:55;6.89;89.13
62464;SHT31;48512;48.552;9.380;2023-12-22T11:20:24;6.91;89.33
62464;SHT31;48512;48.552;9.380;2023-12-22T11:22:51;6.87;89.15
62464;SHT31;48512;48.552;9.380;2023-12-22T11:25:19;6.84;89.47
62464;SHT31;48512;48.552;9.380;2023-12-22T11:27:48;6.87;89.84
62464;SHT31;48512;48.552;9.380;2023-12-22T11:30:14;6.79;89.75
62464;SHT31;48512;48.552;9.380;2023-12-22T11:32:44;6.79;89.98
62464;SHT31;48512;48.552;9.380;2023-12-22T11:35:13;6.88;90.38
62464;SHT31;48512;48.552;9.380;2023-12-22T11:37:40;6.87;90.88
62464;SHT31;48512;48.552;9.380;2023-12-22T11:40:07;6.91;90.37
62464;SHT31;48512;48.552;9.380;2023-12-22T11:42:40;6.85;90.71
62464;SHT31;48512;48.552;9.380;2023-12-22T11:45:10;6.82;90.95
62464;SHT31;48512;48.552;9.380;2023-12-22T11:47:38;6.78;91.21
62464;SHT31;48512;48.552;9.380;2023-12-22T11:50:10;6.84;91.38
62464;SHT31;48512;48.552;9.380;2023-12-22T11:52:36;6.79;91.11
62464;SHT31;48512;48.552;9.380;2023-12-22T11:55:03;6.75;91.20
62464;SHT31;48512;48.552;9.380;2023-12-22T12:00:08;7.34;89.19
62464;SHT31;48512;48.552;9.380;2023-12-22T12:02:54;7.13;90.81
62464;SHT31;48512;48.552;9.380;2023-12-22T12:05:27;6.98;91.42
62464;SHT31;48512;48.552;9.380;2023-12-22T12:07:53;6.81;91.49
62464;SHT31;48512;48.552;9.380;2023-12-22T12:13:11;6.75;92.23
62464;SHT31;48512;48.552;9.380;2023-12-22T12:15:41;6.68;92.58
62464;SHT31;48512;48.552;9.380;2023-12-22T12:18:08;6.68;92.02
62464;SHT31;48512;48.552;9.380;2023-12-22T12:20:35;6.71;92.44
62464;SHT31;48512;48.552;9.380;2023-12-22T12:23:02;6.71;92.40
62464;SHT31;48512;48.552;9.380;2023-12-22T12:25:30;6.71;92.62
62464;SHT31;48512;48.552;9.380;2023-12-22T12:28:07;6.67;92.78
62464;SHT31;48512;48.552;9.380;2023-12-22T12:30:38;6.67;92.66
62464;SHT31;48512;48.552;9.380;2023-12-22T12:33:10;6.72;92.70
62464;SHT31;48512;48.552;9.380;2023-12-22T12:35:39;6.70;92.30
62464;SHT31;48512;48.552;9.380;2023-12-22T12:38:05;6.75;92.39
62464;SHT31;48512;48.552;9.380;2023-12-22T12:40:32;6.71;91.74
62464;SHT31;48512;48.552;9.380;2023-12-22T12:43:04;6.71;92.33
62464;SHT31;48512;48.552;9.380;2023-12-22T12:45:30;6.72;92.39
62464;SHT31;48512;48.552;9.380;2023-12-22T12:48:04;6.74;92.54
62464;SHT31;48512;48.552;9.380;2023-12-22T12:50:30;6.77;92.00
62464;SHT31;48512;48.552;9.380;2023-12-22T12:53:06;6.77;92.01
62464;SHT31;48512;48.552;9.380;2023-12-22T12:55:33;6.81;92.15
62464;SHT31;48512;48.552;9.380;2023-12-22T12:58:00;6.87;91.83
62464;SHT31;48512;48.552;9.380;2023-12-22T13:00:31;6.87;92.14
62464;SHT31;48512;48.552;9.380;2023-12-22T13:03:04;6.91;92.03
62464;SHT31;48512;48.552;9.380;2023-12-22T13:05:31;6.91;92.01
62464;SHT31;48512;48.552;9.380;2023-12-22T13:08:12;6.95;91.96
62464;SHT31;48512;48.552;9.380;2023-12-22T13:10:40;6.98;91.81
62464;SHT31;48512;48.552;9.380;2023-12-22T13:13:06;6.99;91.82
62464;SHT31;48512;48.552;9.380;2023-12-22T13:15:33;6.98;92.31
62464;SHT31;48512;48.552;9.380;2023-12-22T13:18:03;7.00;92.23
62464;SHT31;48512;48.552;9.380;2023-12-22T13:20:30;7.05;92.28
62464;SHT31;48512;48.552;9.380;2023-12-22T13:22:57;7.05;92.68
62464;SHT31;48512;48.552;9.380;2023-12-22T13:25:23;7.06;92.88
62464;SHT31;48512;48.552;9.380;2023-12-22T13:27:51;7.09;92.59
62464;SHT31;48512;48.552;9.380;2023-12-22T13:30:38;7.12;92.60
62464;SHT31;48512;48.552;9.380;2023-12-22T13:33:08;7.15;92.51
62464;SHT31;48512;48.552;9.380;2023-12-22T13:35:40;7.16;92.79
62464;SHT31;48512;48.552;9.380;2023-12-22T13:38:07;7.19;92.74
62464;SHT31;48512;48.552;9.380;2023-12-22T13:40:34;7.19;92.66
62464;SHT31;48512;48.552;9.380;2023-12-22T13:43:02;7.23;92.28
62464;SHT31;48512;48.552;9.380;2023-12-22T13:45:29;7.29;92.36
62464;SHT31;48512;48.552;9.380;2023-12-22T13:47:58;7.29;92.87
62464;SHT31;48512;48.552;9.380;2023-12-22T13:50:27;7.56;96.23
62464;SHT31;48512;48.552;9.380;2023-12-22T13:52:54;9.26;99.96
62464;SHT31;48512;48.552;9.380;2023-12-22T13:55:24;10.21;94.29
62464;SHT31;48512;48.552;9.380;2023-12-22T13:57:58;9.46;85.58
62464;SHT31;48512;48.552;9.380;2023-12-22T14:00:30;8.88;87.42
62464;SHT31;48512;48.552;9.380;2023-12-22T14:02:57;8.32;88.84
62464;SHT31;48512;48.552;9.380;2023-12-22T14:05:27;8.03;89.94
62464;SHT31;48512;48.552;9.380;2023-12-22T14:07:54;7.85;90.74
62464;SHT31;48512;48.552;9.380;2023-12-22T14:10:21;7.77;90.99
62464;SHT31;48512;48.552;9.380;2023-12-22T14:12:50;7.70;91.67
62464;SHT31;48512;48.552;9.380;2023-12-22T14:15:17;7.66;91.56
62464;SHT31;48512;48.552;9.380;2023-12-22T14:17:43;7.70;91.76
62464;SHT31;48512;48.552;9.380;2023-12-22T14:20:09;7.67;91.87
62464;SHT31;48512;48.552;9.380;2023-12-22T14:22:37;7.70;91.91
62464;SHT31;48512;48.552;9.380;2023-12-22T14:25:04;7.70;92.18
62464;SHT31;48512;48.552;9.380;2023-12-22T14:27:32;7.73;92.12
62464;SHT31;48512;48.552;9.380;2023-12-22T14:29:58;7.70;92.18
62464;SHT31;48512;48.552;9.380;2023-12-22T14:32:25;7.70;92.17
62464;SHT31;48512;48.552;9.380;2023-12-22T14:34:51;7.67;92.34
62464;SHT31;48512;48.552;9.380;2023-12-22T14:37:18;7.71;92.39
62464;SHT31;48512;48.552;9.380;2023-12-22T14:39:45;7.70;92.33
62464;SHT31;48512;48.552;9.380;2023-12-22T14:42:12;7.73;92.50
62464;SHT31;48512;48.552;9.380;2023-12-22T14:44:39;7.71;92.73
62464;SHT31;48512;48.552;9.380;2023-12-22T14:47:06;7.75;92.39
62464;SHT31;48512;48.552;9.380;2023-12-22T14:49:33;7.77;92.15
62464;SHT31;48512;48.552;9.380;2023-12-22T14:51:59;7.82;91.96
62464;SHT31;48512;48.552;9.380;2023-12-22T14:54:26;7.84;91.85
62464;SHT31;48512;48.552;9.380;2023-12-22T14:56:54;7.84;91.83
62464;SHT31;48512;48.552;9.380;2023-12-22T14:59:20;7.86;92.16
62464;SHT31;48512;48.552;9.380;2023-12-22T15:01:46;7.91;92.50
62464;SHT31;48512;48.552;9.380;2023-12-22T15:04:13;7.94;91.43
62464;SHT31;48512;48.552;9.380;2023-12-22T15:06:46;7.96;91.29
62464;SHT31;48512;48.552;9.380;2023-12-22T15:09:12;9.30;99.49
62464;SHT31;48512;48.552;9.380;2023-12-22T15:11:46;9.47;89.90
62464;SHT31;48512;48.552;9.380;2023-12-22T15:14:17;9.05;88.10
62464;SHT31;48512;48.552;9.380;2023-12-22T15:16:43;8.64;89.18
62464;SHT31;48512;48.552;9.380;2023-12-22T15:19:14;8.40;89.95
62464;SHT31;48512;48.552;9.380;2023-12-22T15:21:42;8.25;90.28
62464;SHT31;48512;48.552;9.380;2023-12-22T15:24:09;8.57;89.48
62464;SHT31;48512;48.552;9.380;2023-12-22T15:26:35;8.37;90.11
62464;SHT31;48512;48.552;9.380;2023-12-22T15:29:11;8.26;90.10
62464;SHT31;48512;48.552;9.380;2023-12-22T15:31:38;8.23;90.53
62464;SHT31;48512;48.552;9.380;2023-12-22T15:34:04;8.19;90.46
62464;SHT31;48512;48.552;9.380;2023-12-22T15:36:33;8.16;90.62
62464;SHT31;48512;48.552;9.380;2023-12-22T15:38:59;8.12;90.78
62464;SHT31;48512;48.552;9.380;2023-12-22T15:41:29;8.10;91.15
62464;SHT31;48512;48.552;9.380;2023-12-22T15:44:01;8.15;90.91
62464;SHT31;48512;48.552;9.380;2023-12-22T15:46:27;8.13;91.05
62464;SHT31;48512;48.552;9.380;2023-12-22T15:48:56;8.10;91.27
62464;SHT31;48512;48.552;9.380;2023-12-22T15:51:25;8.07;91.65
62464;SHT31;48512;48.552;9.380;2023-12-22T15:53:51;8.07;91.72
62464;SHT31;48512;48.552;9.380;2023-12-22T15:56:17;8.07;91.80
62464;SHT31;48512;48.552;9.380;2023-12-22T15:58:44;8.05;91.95
62464;SHT31;48512;48.552;9.380;2023-12-22T16:01:12;8.05;91.85
62464;SHT31;48512;48.552;9.380;2023-12-22T16:03:41;8.09;91.74